Trance — V7QT3 — position and weather

sailwx.info

Track history (hours):
 
Tides and Currents Weather Stations Pressure Air Temp Water Temp Dewpoint Dewpoint Depression Visibility Wind Speed Wind Dir Waves Ship Positions

Trance

Last reported at 2017-Nov-19 09:52 UTC. Time now 2017-Nov-20 17:20 UTC.
Position N 43°59' W 009°23'.

Length 180 m; draft 6.7 m.

Type: Tanker. MMSI: 538001433.

Date/timePositionNaut miles runAvg speedWind from/ knotsBaromVisibWave heightAir tempDewpointWater temp
2017-Nov-19 09:52N 43°59' W 009°23'2010.5
2017-Nov-19 07:56N 43°42' W 009°37'4010.8
2017-Nov-19 04:14N 43°04' W 009°57'311.3
2017-Nov-19 03:59N 43°02' W 009°57'2111.5
2017-Nov-19 02:11N 42°41' W 009°57'6111.2
2017-Nov-18 20:43N 41°40' W 009°57'5711.1
2017-Nov-18 15:36N 40°43' W 009°57'111.4
2017-Nov-18 15:29N 40°41' W 009°57'1811.2
2017-Nov-18 13:56N 40°24' W 009°57'511.2
2017-Nov-18 13:30N 40°19' W 009°57'611.2
2017-Nov-18 13:00N 40°14' W 009°57'611.4
2017-Nov-18 12:30N 40°08' W 009°57'1011.3
2017-Nov-18 11:37N 39°58' W 009°56'111.4
2017-Nov-18 11:30N 39°57' W 009°56'711.3
2017-Nov-18 10:55N 39°50' W 009°57'1911.1
2017-Nov-18 09:13N 39°31' W 009°57'210.9
2017-Nov-18 09:00N 39°29' W 009°57'510.8
2017-Nov-18 08:30N 39°23' W 009°57'611.1
2017-Nov-18 08:00N 39°18' W 009°57'611.3
2017-Nov-18 07:30N 39°12' W 009°57'611.4
2017-Nov-18 07:00N 39°06' W 009°57'611.2
2017-Nov-18 06:30N 39°01' W 009°57'611.2
2017-Nov-18 06:00N 38°55' W 009°57'611.3
2017-Nov-18 05:30N 38°50' W 009°57'611.3
2017-Nov-18 05:00N 38°44' W 009°56'611.2
2017-Nov-18 04:30N 38°38' W 009°55'611.0
2017-Nov-18 04:00N 38°33' W 009°54'611.3
2017-Nov-18 03:30N 38°28' W 009°52'611.0
2017-Nov-18 03:00N 38°22' W 009°50'611.2
2017-Nov-18 02:30N 38°17' W 009°49'611.5
2017-Nov-18 02:00N 38°11' W 009°47'510.9
2017-Nov-18 01:30N 38°06' W 009°45'611.1
2017-Nov-18 01:00N 38°01' W 009°44'611.3
2017-Nov-18 00:30N 37°55' W 009°42'611.4
2017-Nov-18 00:00N 37°49' W 009°41'611.6
2017-Nov-17 23:30N 37°44' W 009°42'611.1
2017-Nov-17 23:00N 37°38' W 009°42'510.7
2017-Nov-17 22:30N 37°33' W 009°43'610.9
2017-Nov-17 22:00N 37°27' W 009°44'711.1
2017-Nov-17 21:19N 37°20' W 009°45'411.3
2017-Nov-17 21:00N 37°16' W 009°46'611.3
2017-Nov-17 20:30N 37°11' W 009°47'611.3
2017-Nov-17 20:00N 37°05' W 009°48'611.3
2017-Nov-17 19:30N 36°60' W 009°48'611.4
2017-Nov-17 18:59N 36°54' W 009°47'711.7
2017-Nov-17 18:25N 36°47' W 009°44'711.4
2017-Nov-17 17:49N 36°41' W 009°41'411.4
2017-Nov-17 17:30N 36°38' W 009°38'199 5.0
2017-Nov-16 01:27N 35°58' W 005°37'512.0
2017-Nov-16 01:00N 35°59' W 005°30'611.5
2017-Nov-16 00:30N 36°01' W 005°23'611.5
2017-Nov-16 00:00N 36°02' W 005°17'  
2017-Nov-12 07:20N 36°31' E 014°04'412.5
2017-Nov-12 06:59N 36°29' E 014°09'612.6
2017-Nov-12 06:30N 36°28' E 014°17'612.4
2017-Nov-12 06:00N 36°26' E 014°24'612.3
2017-Nov-12 05:30N 36°24' E 014°31'612.0
2017-Nov-12 05:00N 36°22' E 014°38'612.1
2017-Nov-12 04:29N 36°20' E 014°46'45710.8
2017-Nov-10 10:09N 37°34' E 024°10'213.1
2017-Nov-10 10:00N 37°36' E 024°11'1712.7
2017-Nov-10 08:40N 37°49' E 024°25'  
Track history (hours):
 
Tides and Currents Weather Stations Pressure Air Temp Water Temp Dewpoint Dewpoint Depression Visibility Wind Speed Wind Dir Waves Ship Positions

Trance

Last reported at 2017-Nov-19 09:52 UTC. Time now 2017-Nov-20 17:20 UTC.
Position N 43°59' W 009°23'.

Length 180 m; draft 6.7 m.

Type: Tanker. MMSI: 538001433.

Date/timePositionNaut miles runAvg speedWind from/ knotsBaromVisibWave heightAir tempDewpointWater temp
2017-Nov-19 09:52N 43°59' W 009°23'2010.5
2017-Nov-19 07:56N 43°42' W 009°37'4010.8
2017-Nov-19 04:14N 43°04' W 009°57'311.3
2017-Nov-19 03:59N 43°02' W 009°57'2111.5
2017-Nov-19 02:11N 42°41' W 009°57'6111.2
2017-Nov-18 20:43N 41°40' W 009°57'5711.1
2017-Nov-18 15:36N 40°43' W 009°57'111.4
2017-Nov-18 15:29N 40°41' W 009°57'1811.2
2017-Nov-18 13:56N 40°24' W 009°57'511.2
2017-Nov-18 13:30N 40°19' W 009°57'611.2
2017-Nov-18 13:00N 40°14' W 009°57'611.4
2017-Nov-18 12:30N 40°08' W 009°57'1011.3
2017-Nov-18 11:37N 39°58' W 009°56'111.4
2017-Nov-18 11:30N 39°57' W 009°56'711.3
2017-Nov-18 10:55N 39°50' W 009°57'1911.1
2017-Nov-18 09:13N 39°31' W 009°57'210.9
2017-Nov-18 09:00N 39°29' W 009°57'510.8
2017-Nov-18 08:30N 39°23' W 009°57'611.1
2017-Nov-18 08:00N 39°18' W 009°57'611.3
2017-Nov-18 07:30N 39°12' W 009°57'611.4
2017-Nov-18 07:00N 39°06' W 009°57'611.2
2017-Nov-18 06:30N 39°01' W 009°57'611.2
2017-Nov-18 06:00N 38°55' W 009°57'611.3
2017-Nov-18 05:30N 38°50' W 009°57'611.3
2017-Nov-18 05:00N 38°44' W 009°56'611.2
2017-Nov-18 04:30N 38°38' W 009°55'611.0
2017-Nov-18 04:00N 38°33' W 009°54'611.3
2017-Nov-18 03:30N 38°28' W 009°52'611.0
2017-Nov-18 03:00N 38°22' W 009°50'611.2
2017-Nov-18 02:30N 38°17' W 009°49'611.5
2017-Nov-18 02:00N 38°11' W 009°47'510.9
2017-Nov-18 01:30N 38°06' W 009°45'611.1
2017-Nov-18 01:00N 38°01' W 009°44'611.3
2017-Nov-18 00:30N 37°55' W 009°42'611.4
2017-Nov-18 00:00N 37°49' W 009°41'611.6
2017-Nov-17 23:30N 37°44' W 009°42'611.1
2017-Nov-17 23:00N 37°38' W 009°42'510.7
2017-Nov-17 22:30N 37°33' W 009°43'610.9
2017-Nov-17 22:00N 37°27' W 009°44'711.1
2017-Nov-17 21:19N 37°20' W 009°45'411.3
2017-Nov-17 21:00N 37°16' W 009°46'611.3
2017-Nov-17 20:30N 37°11' W 009°47'611.3
2017-Nov-17 20:00N 37°05' W 009°48'611.3
2017-Nov-17 19:30N 36°60' W 009°48'611.4
2017-Nov-17 18:59N 36°54' W 009°47'711.7
2017-Nov-17 18:25N 36°47' W 009°44'711.4
2017-Nov-17 17:49N 36°41' W 009°41'411.4
2017-Nov-17 17:30N 36°38' W 009°38'199 5.0
2017-Nov-16 01:27N 35°58' W 005°37'512.0
2017-Nov-16 01:00N 35°59' W 005°30'611.5
2017-Nov-16 00:30N 36°01' W 005°23'611.5
2017-Nov-16 00:00N 36°02' W 005°17'  
2017-Nov-12 07:20N 36°31' E 014°04'412.5
2017-Nov-12 06:59N 36°29' E 014°09'612.6
2017-Nov-12 06:30N 36°28' E 014°17'612.4
2017-Nov-12 06:00N 36°26' E 014°24'612.3
2017-Nov-12 05:30N 36°24' E 014°31'612.0
2017-Nov-12 05:00N 36°22' E 014°38'612.1
2017-Nov-12 04:29N 36°20' E 014°46'45710.8
2017-Nov-10 10:09N 37°34' E 024°10'213.1
2017-Nov-10 10:00N 37°36' E 024°11'1712.7
2017-Nov-10 08:40N 37°49' E 024°25'  

Dump ship's entire track history